HKE824 VHHH-ROAH
Flight info
| Callsign | HKE824 |
|---|---|
| Flight time | 1h 54m |
| Altitude | 35000 |
| Route | DALOL V631 ENVAR M750 DADON G581 HCN J7 PICHU Q13 IGURU Y57 VELNO |
| Aircraft | A321/M-SDE3FGHIRWY/LB1 |
Departure
| Time | 2026-04-16 21:00 |
|---|---|
| Airport | Hong Kong International Airport (VHHH) |
Arrival
| Time | 2026-04-16 22:55 |
|---|---|
| Airport | Naha International Airport (ROAH) |
| Time | Latitude | Longitude | Altitude | Speed | Heading |
|---|---|---|---|---|---|
| 2026-04-16 20:34 | 22.31087 | 113.91646 | 32 ft | 0 kts | 71° |
| 2026-04-16 20:49 | 22.31080 | 113.91625 | 32 ft | 4 kts | 71° |
| 2026-04-16 20:49 | 22.31072 | 113.91598 | 32 ft | 4 kts | 71° |
| 2026-04-16 20:49 | 22.31062 | 113.91573 | 31 ft | 4 kts | 45° |
| 2026-04-16 20:49 | 22.31040 | 113.91561 | 31 ft | 4 kts | 356° |
| 2026-04-16 20:50 | 22.31019 | 113.91566 | 31 ft | 2 kts | 341° |
| 2026-04-16 20:50 | 22.30994 | 113.91575 | 31 ft | 4 kts | 341° |
| 2026-04-16 20:50 | 22.30969 | 113.91585 | 32 ft | 4 kts | 341° |
| 2026-04-16 20:50 | 22.30963 | 113.91587 | 32 ft | 0 kts | 341° |
| 2026-04-16 20:52 | 22.30967 | 113.91585 | 32 ft | 2 kts | 341° |
| 2026-04-16 20:53 | 22.30992 | 113.91576 | 32 ft | 6 kts | 341° |
| 2026-04-16 20:53 | 22.31039 | 113.91558 | 32 ft | 9 kts | 341° |
| 2026-04-16 20:53 | 22.31106 | 113.91533 | 32 ft | 12 kts | 341° |
| 2026-04-16 20:53 | 22.31191 | 113.91501 | 32 ft | 14 kts | 341° |
| 2026-04-16 20:54 | 22.31294 | 113.91462 | 32 ft | 15 kts | 340° |
| 2026-04-16 20:54 | 22.31324 | 113.91381 | 32 ft | 13 kts | 255° |
| 2026-04-16 20:54 | 22.31292 | 113.91286 | 31 ft | 14 kts | 249° |
| 2026-04-16 20:54 | 22.31260 | 113.91189 | 32 ft | 14 kts | 252° |
| 2026-04-16 20:55 | 22.31229 | 113.91088 | 32 ft | 14 kts | 251° |
| 2026-04-16 20:55 | 22.31196 | 113.90984 | 32 ft | 15 kts | 250° |
| 2026-04-16 20:55 | 22.31160 | 113.90879 | 32 ft | 15 kts | 250° |
| 2026-04-16 20:55 | 22.31125 | 113.90772 | 32 ft | 15 kts | 251° |
| 2026-04-16 20:56 | 22.31091 | 113.90661 | 32 ft | 16 kts | 251° |
| 2026-04-16 20:56 | 22.31054 | 113.90546 | 32 ft | 16 kts | 251° |
| 2026-04-16 20:56 | 22.31016 | 113.90429 | 32 ft | 17 kts | 251° |
| 2026-04-16 20:56 | 22.30978 | 113.90310 | 32 ft | 17 kts | 251° |
| 2026-04-16 20:57 | 22.30940 | 113.90189 | 32 ft | 17 kts | 251° |
| 2026-04-16 20:57 | 22.30901 | 113.90068 | 32 ft | 17 kts | 251° |
| 2026-04-16 20:57 | 22.30863 | 113.89947 | 32 ft | 15 kts | 251° |
| 2026-04-16 20:57 | 22.30848 | 113.89865 | 32 ft | 11 kts | 290° |
| 2026-04-16 20:58 | 22.30897 | 113.89828 | 32 ft | 5 kts | 336° |
| 2026-04-16 20:58 | 22.30935 | 113.89813 | 32 ft | 6 kts | 341° |
| 2026-04-16 20:58 | 22.30978 | 113.89797 | 31 ft | 8 kts | 341° |
| 2026-04-16 20:58 | 22.31043 | 113.89773 | 30 ft | 10 kts | 340° |
| 2026-04-16 20:59 | 22.31085 | 113.89788 | 30 ft | 6 kts | 52° |
| 2026-04-16 20:59 | 22.31099 | 113.89821 | 30 ft | 0 kts | 68° |
| 2026-04-16 20:59 | 22.31124 | 113.89896 | 30 ft | 39 kts | 70° |
| 2026-04-16 20:59 | 22.31293 | 113.90419 | 31 ft | 106 kts | 71° |
| 2026-04-16 21:00 | 22.31593 | 113.91366 | 33 ft | 158 kts | 71° |
| 2026-04-16 21:00 | 22.31954 | 113.92527 | 203 ft | 183 kts | 71° |
| 2026-04-16 21:00 | 22.32365 | 113.93792 | 937 ft | 178 kts | 71° |
| 2026-04-16 21:00 | 22.32774 | 113.95042 | 1622 ft | 178 kts | 73° |
| 2026-04-16 21:01 | 22.33196 | 113.96347 | 2006 ft | 192 kts | 72° |
| 2026-04-16 21:01 | 22.33517 | 113.97819 | 2197 ft | 210 kts | 82° |
| 2026-04-16 21:01 | 22.33775 | 113.99405 | 2619 ft | 216 kts | 81° |
| 2026-04-16 21:01 | 22.34037 | 114.01015 | 3098 ft | 219 kts | 81° |
| 2026-04-16 21:02 | 22.34302 | 114.02639 | 3565 ft | 221 kts | 80° |
| 2026-04-16 21:02 | 22.34558 | 114.04319 | 3843 ft | 234 kts | 86° |
| 2026-04-16 21:02 | 22.34258 | 114.06066 | 4188 ft | 242 kts | 119° |
| 2026-04-16 21:03 | 22.31742 | 114.08605 | 4867 ft | 269 kts | 137° |
| 2026-04-16 21:03 | 22.30471 | 114.10141 | 5252 ft | 279 kts | 128° |
| 2026-04-16 21:03 | 22.29293 | 114.11843 | 5805 ft | 284 kts | 127° |
| 2026-04-16 21:03 | 22.28128 | 114.13588 | 6352 ft | 289 kts | 127° |
| 2026-04-16 21:04 | 22.26932 | 114.15343 | 6879 ft | 291 kts | 128° |
| 2026-04-16 21:04 | 22.25698 | 114.17091 | 7417 ft | 294 kts | 129° |
| 2026-04-16 21:04 | 22.24426 | 114.18836 | 7997 ft | 297 kts | 130° |
| 2026-04-16 21:04 | 22.23144 | 114.20556 | 8582 ft | 299 kts | 131° |
| 2026-04-16 21:05 | 22.21808 | 114.22325 | 9166 ft | 301 kts | 131° |
| 2026-04-16 21:05 | 22.20493 | 114.24058 | 9721 ft | 303 kts | 131° |
| 2026-04-16 21:05 | 22.19144 | 114.25833 | 10110 ft | 312 kts | 131° |
| 2026-04-16 21:05 | 22.17901 | 114.27826 | 10221 ft | 331 kts | 115° |
| 2026-04-16 21:06 | 22.17367 | 114.30304 | 10338 ft | 349 kts | 95° |
| 2026-04-16 21:06 | 22.17217 | 114.32976 | 10459 ft | 364 kts | 94° |
| 2026-04-16 21:06 | 22.17089 | 114.35760 | 10567 ft | 379 kts | 93° |
| 2026-04-16 21:06 | 22.16969 | 114.38656 | 10698 ft | 393 kts | 93° |
| 2026-04-16 21:07 | 22.16845 | 114.41633 | 10969 ft | 400 kts | 93° |
| 2026-04-16 21:07 | 22.16712 | 114.44642 | 11357 ft | 403 kts | 94° |
| 2026-04-16 21:07 | 22.16569 | 114.47669 | 11743 ft | 406 kts | 94° |
| 2026-04-16 21:07 | 22.16422 | 114.50688 | 12127 ft | 409 kts | 94° |
| 2026-04-16 21:08 | 22.16272 | 114.53766 | 12513 ft | 413 kts | 94° |
| 2026-04-16 21:08 | 22.16121 | 114.56874 | 12900 ft | 416 kts | 94° |
| 2026-04-16 21:08 | 22.15965 | 114.60000 | 13287 ft | 419 kts | 94° |
| 2026-04-16 21:08 | 22.15808 | 114.63155 | 13676 ft | 423 kts | 94° |
| 2026-04-16 21:09 | 22.15652 | 114.66336 | 14020 ft | 426 kts | 94° |
| 2026-04-16 21:09 | 22.15493 | 114.69535 | 14367 ft | 428 kts | 94° |
| 2026-04-16 21:09 | 22.15333 | 114.72748 | 14708 ft | 431 kts | 94° |
| 2026-04-16 21:09 | 22.15170 | 114.75983 | 15045 ft | 433 kts | 94° |
| 2026-04-16 21:10 | 22.15007 | 114.79238 | 15378 ft | 435 kts | 94° |
| 2026-04-16 21:10 | 22.14842 | 114.82507 | 15714 ft | 438 kts | 94° |
| 2026-04-16 21:10 | 22.14676 | 114.85794 | 16052 ft | 440 kts | 94° |
| 2026-04-16 21:10 | 22.14507 | 114.89103 | 16384 ft | 443 kts | 94° |
| 2026-04-16 21:11 | 22.14336 | 114.92427 | 16709 ft | 445 kts | 94° |
| 2026-04-16 21:11 | 22.14167 | 114.95766 | 17024 ft | 447 kts | 94° |
| 2026-04-16 21:11 | 22.13998 | 114.99127 | 17343 ft | 449 kts | 94° |
| 2026-04-16 21:11 | 22.13829 | 115.02459 | 17652 ft | 452 kts | 94° |
| 2026-04-16 21:12 | 22.13654 | 115.05850 | 17959 ft | 454 kts | 94° |
| 2026-04-16 21:12 | 22.13478 | 115.09254 | 18261 ft | 456 kts | 94° |
| 2026-04-16 21:12 | 22.13301 | 115.12680 | 18525 ft | 458 kts | 94° |
| 2026-04-16 21:12 | 22.13120 | 115.16120 | 18789 ft | 461 kts | 94° |
| 2026-04-16 21:13 | 22.12936 | 115.19575 | 19051 ft | 463 kts | 94° |
| 2026-04-16 21:13 | 22.12749 | 115.23051 | 19309 ft | 465 kts | 94° |
| 2026-04-16 21:13 | 22.12562 | 115.26539 | 19567 ft | 467 kts | 94° |
| 2026-04-16 21:13 | 22.12376 | 115.30050 | 19823 ft | 470 kts | 94° |
| 2026-04-16 21:14 | 22.12190 | 115.33572 | 20073 ft | 472 kts | 94° |
| 2026-04-16 21:14 | 22.12001 | 115.37117 | 20323 ft | 474 kts | 94° |
| 2026-04-16 21:14 | 22.11811 | 115.40673 | 20567 ft | 476 kts | 94° |
| 2026-04-16 21:14 | 22.11616 | 115.44243 | 20812 ft | 478 kts | 94° |
| 2026-04-16 21:15 | 22.11421 | 115.47818 | 21035 ft | 480 kts | 94° |
| 2026-04-16 21:15 | 22.11224 | 115.51423 | 21259 ft | 482 kts | 94° |
| 2026-04-16 21:15 | 22.11028 | 115.55035 | 21480 ft | 484 kts | 94° |
| 2026-04-16 21:15 | 22.10833 | 115.58657 | 21701 ft | 485 kts | 95° |
| 2026-04-16 21:16 | 22.10634 | 115.62306 | 21928 ft | 487 kts | 95° |
| 2026-04-16 21:16 | 22.10432 | 115.65967 | 22151 ft | 489 kts | 95° |
| 2026-04-16 21:16 | 22.10227 | 115.69636 | 22372 ft | 491 kts | 95° |
| 2026-04-16 21:16 | 22.10019 | 115.73319 | 22590 ft | 493 kts | 95° |
| 2026-04-16 21:17 | 22.09810 | 115.77020 | 22807 ft | 495 kts | 95° |
| 2026-04-16 21:17 | 22.09602 | 115.80728 | 23026 ft | 497 kts | 95° |
| 2026-04-16 21:17 | 22.09389 | 115.84450 | 23243 ft | 498 kts | 95° |
| 2026-04-16 21:17 | 22.09171 | 115.88189 | 23458 ft | 500 kts | 95° |
| 2026-04-16 21:18 | 22.08954 | 115.91943 | 23651 ft | 502 kts | 95° |
| 2026-04-16 21:18 | 22.08737 | 115.95701 | 23832 ft | 503 kts | 95° |
| 2026-04-16 21:18 | 22.08524 | 115.99474 | 24031 ft | 505 kts | 95° |
| 2026-04-16 21:18 | 22.08314 | 116.03209 | 24230 ft | 506 kts | 95° |
| 2026-04-16 21:19 | 22.08094 | 116.07001 | 24426 ft | 507 kts | 95° |
| 2026-04-16 21:19 | 22.07872 | 116.10800 | 24617 ft | 508 kts | 95° |
| 2026-04-16 21:19 | 22.07647 | 116.14604 | 24791 ft | 509 kts | 95° |
| 2026-04-16 21:19 | 22.07423 | 116.18418 | 24962 ft | 510 kts | 95° |
| 2026-04-16 21:20 | 22.07202 | 116.22242 | 25126 ft | 511 kts | 95° |
| 2026-04-16 21:20 | 22.06980 | 116.26064 | 25276 ft | 512 kts | 95° |
| 2026-04-16 21:20 | 22.06753 | 116.29908 | 25446 ft | 513 kts | 95° |
| 2026-04-16 21:20 | 22.06526 | 116.33748 | 25606 ft | 514 kts | 95° |
| 2026-04-16 21:21 | 22.06299 | 116.37598 | 25754 ft | 514 kts | 95° |
| 2026-04-16 21:21 | 22.06065 | 116.41446 | 25897 ft | 515 kts | 95° |
| 2026-04-16 21:21 | 22.05827 | 116.45304 | 26027 ft | 516 kts | 95° |
| 2026-04-16 21:21 | 22.05588 | 116.49166 | 26188 ft | 516 kts | 95° |
| 2026-04-16 21:22 | 22.05350 | 116.53025 | 26382 ft | 515 kts | 95° |
| 2026-04-16 21:22 | 22.05114 | 116.56871 | 26566 ft | 515 kts | 95° |
| 2026-04-16 21:22 | 22.04879 | 116.60724 | 26749 ft | 514 kts | 95° |
| 2026-04-16 21:22 | 22.04646 | 116.64568 | 26933 ft | 514 kts | 95° |
| 2026-04-16 21:23 | 22.04411 | 116.68411 | 27117 ft | 514 kts | 95° |
| 2026-04-16 21:23 | 22.04174 | 116.72252 | 27306 ft | 513 kts | 95° |
| 2026-04-16 21:23 | 22.03937 | 116.76088 | 27497 ft | 513 kts | 95° |
| 2026-04-16 21:23 | 22.03698 | 116.79928 | 27650 ft | 514 kts | 95° |
| 2026-04-16 21:24 | 22.03457 | 116.83773 | 27832 ft | 514 kts | 95° |
| 2026-04-16 21:24 | 22.03217 | 116.87560 | 28008 ft | 513 kts | 95° |
| 2026-04-16 21:24 | 22.02971 | 116.91397 | 28209 ft | 513 kts | 95° |
| 2026-04-16 21:24 | 22.02728 | 116.95229 | 28410 ft | 512 kts | 95° |
| 2026-04-16 21:25 | 22.02489 | 116.99052 | 28603 ft | 511 kts | 95° |
| 2026-04-16 21:25 | 22.02250 | 117.02880 | 28803 ft | 511 kts | 95° |
| 2026-04-16 21:25 | 22.02008 | 117.06698 | 28991 ft | 511 kts | 95° |
| 2026-04-16 21:25 | 22.01763 | 117.10507 | 29183 ft | 510 kts | 95° |
| 2026-04-16 21:26 | 22.01514 | 117.14321 | 29369 ft | 510 kts | 95° |
| 2026-04-16 21:26 | 22.01262 | 117.18134 | 29555 ft | 509 kts | 95° |
| 2026-04-16 21:26 | 22.01010 | 117.21937 | 29751 ft | 509 kts | 95° |
| 2026-04-16 21:26 | 22.00764 | 117.25741 | 29946 ft | 509 kts | 95° |
| 2026-04-16 21:27 | 22.00603 | 117.28260 | 30065 ft | 508 kts | 95° |
| 2026-04-16 21:27 | 22.00358 | 117.32056 | 30216 ft | 508 kts | 95° |
| 2026-04-16 21:27 | 22.00110 | 117.35855 | 30377 ft | 508 kts | 95° |
| 2026-04-16 21:27 | 21.99861 | 117.39650 | 30527 ft | 508 kts | 95° |
| 2026-04-16 21:28 | 21.99646 | 117.43448 | 30671 ft | 508 kts | 91° |
| 2026-04-16 21:28 | 21.99856 | 117.47247 | 30804 ft | 508 kts | 82° |
| 2026-04-16 21:28 | 22.00599 | 117.50966 | 30942 ft | 508 kts | 72° |
| 2026-04-16 21:28 | 22.01869 | 117.54518 | 31078 ft | 507 kts | 63° |
| 2026-04-16 21:29 | 22.03602 | 117.57823 | 31213 ft | 506 kts | 57° |
| 2026-04-16 21:29 | 22.05447 | 117.61051 | 31345 ft | 506 kts | 57° |
| 2026-04-16 21:29 | 22.07288 | 117.64286 | 31486 ft | 506 kts | 57° |
| 2026-04-16 21:29 | 22.09128 | 117.67528 | 31631 ft | 506 kts | 57° |
| 2026-04-16 21:30 | 22.10941 | 117.70726 | 31770 ft | 506 kts | 57° |
| 2026-04-16 21:30 | 22.12803 | 117.74008 | 31918 ft | 506 kts | 57° |
| 2026-04-16 21:30 | 22.14613 | 117.77200 | 32061 ft | 506 kts | 57° |
| 2026-04-16 21:30 | 22.16471 | 117.80481 | 32203 ft | 506 kts | 57° |
| 2026-04-16 21:31 | 22.18278 | 117.83678 | 32350 ft | 506 kts | 57° |
| 2026-04-16 21:31 | 22.20109 | 117.86925 | 32493 ft | 506 kts | 57° |
| 2026-04-16 21:31 | 22.21938 | 117.90172 | 32634 ft | 506 kts | 57° |
| 2026-04-16 21:31 | 22.23764 | 117.93419 | 32774 ft | 506 kts | 58° |
| 2026-04-16 21:32 | 22.25314 | 117.96828 | 32906 ft | 507 kts | 68° |
| 2026-04-16 21:32 | 22.26346 | 118.00464 | 33039 ft | 507 kts | 78° |
| 2026-04-16 21:32 | 22.26837 | 118.04229 | 33158 ft | 506 kts | 88° |
| 2026-04-16 21:32 | 22.26784 | 118.08025 | 33283 ft | 505 kts | 97° |
| 2026-04-16 21:33 | 22.26372 | 118.11788 | 33412 ft | 504 kts | 98° |
| 2026-04-16 21:33 | 22.25949 | 118.15548 | 33545 ft | 504 kts | 98° |
| 2026-04-16 21:33 | 22.25519 | 118.19296 | 33678 ft | 504 kts | 98° |
| 2026-04-16 21:33 | 22.25086 | 118.23054 | 33813 ft | 504 kts | 98° |
| 2026-04-16 21:34 | 22.24657 | 118.26764 | 33939 ft | 504 kts | 98° |
| 2026-04-16 21:34 | 22.24222 | 118.30519 | 34054 ft | 504 kts | 98° |
| 2026-04-16 21:34 | 22.23786 | 118.34271 | 34168 ft | 503 kts | 98° |
| 2026-04-16 21:34 | 22.23350 | 118.38019 | 34281 ft | 503 kts | 98° |
| 2026-04-16 21:35 | 22.22915 | 118.41769 | 34401 ft | 503 kts | 98° |
| 2026-04-16 21:35 | 22.22481 | 118.45510 | 34521 ft | 503 kts | 98° |
| 2026-04-16 21:35 | 22.22045 | 118.49255 | 34641 ft | 502 kts | 99° |
| 2026-04-16 21:35 | 22.21610 | 118.52988 | 34770 ft | 502 kts | 99° |
| 2026-04-16 21:36 | 22.21174 | 118.56723 | 34897 ft | 501 kts | 99° |
| 2026-04-16 21:36 | 22.20285 | 118.64206 | 34938 ft | 504 kts | 99° |
| 2026-04-16 21:37 | 22.19392 | 118.71706 | 34947 ft | 504 kts | 99° |
| 2026-04-16 21:37 | 22.18506 | 118.79208 | 34942 ft | 504 kts | 99° |
| 2026-04-16 21:38 | 22.17620 | 118.86717 | 34940 ft | 504 kts | 99° |
| 2026-04-16 21:38 | 22.16723 | 118.94227 | 34946 ft | 505 kts | 99° |
| 2026-04-16 21:39 | 22.15764 | 119.01686 | 34955 ft | 504 kts | 101° |
| 2026-04-16 21:39 | 22.14578 | 119.09137 | 34962 ft | 504 kts | 101° |
| 2026-04-16 21:40 | 22.13581 | 119.16633 | 34963 ft | 505 kts | 98° |
| 2026-04-16 21:40 | 22.12782 | 119.24155 | 34965 ft | 505 kts | 98° |
| 2026-04-16 21:41 | 22.11988 | 119.31683 | 34966 ft | 505 kts | 98° |
| 2026-04-16 21:41 | 22.11127 | 119.39196 | 34964 ft | 504 kts | 99° |
| 2026-04-16 21:42 | 22.10225 | 119.46692 | 34964 ft | 504 kts | 99° |
| 2026-04-16 21:42 | 22.09329 | 119.54198 | 34961 ft | 504 kts | 99° |
| 2026-04-16 21:43 | 22.08450 | 119.61696 | 34967 ft | 504 kts | 99° |
| 2026-04-16 21:43 | 22.07576 | 119.69151 | 34967 ft | 503 kts | 99° |
| 2026-04-16 21:44 | 22.06642 | 119.76643 | 34963 ft | 503 kts | 99° |
| 2026-04-16 21:44 | 22.05683 | 119.84126 | 34952 ft | 503 kts | 99° |
| 2026-04-16 21:45 | 22.04735 | 119.91599 | 34958 ft | 503 kts | 99° |
| 2026-04-16 21:45 | 22.03792 | 119.99070 | 34957 ft | 503 kts | 99° |
| 2026-04-16 21:46 | 22.02851 | 120.06543 | 34950 ft | 503 kts | 99° |
| 2026-04-16 21:46 | 22.02041 | 120.12974 | 34952 ft | 503 kts | 99° |
| 2026-04-16 21:47 | 22.01090 | 120.20450 | 34953 ft | 503 kts | 99° |
| 2026-04-16 21:47 | 22.00138 | 120.27868 | 34952 ft | 503 kts | 99° |
| 2026-04-16 21:48 | 21.99169 | 120.35333 | 34949 ft | 503 kts | 99° |
| 2026-04-16 21:48 | 21.98201 | 120.42805 | 34946 ft | 503 kts | 99° |
| 2026-04-16 21:49 | 21.97240 | 120.50276 | 34949 ft | 503 kts | 99° |
| 2026-04-16 21:49 | 21.96275 | 120.57743 | 34954 ft | 503 kts | 99° |
| 2026-04-16 21:50 | 21.95297 | 120.65207 | 34950 ft | 503 kts | 99° |
| 2026-04-16 21:50 | 21.94317 | 120.72661 | 34951 ft | 503 kts | 99° |
| 2026-04-16 21:51 | 21.93334 | 120.80123 | 34946 ft | 503 kts | 99° |
| 2026-04-16 21:51 | 21.93367 | 120.87597 | 34947 ft | 504 kts | 81° |
| 2026-04-16 21:52 | 21.94705 | 120.95025 | 34946 ft | 504 kts | 79° |
| 2026-04-16 21:52 | 21.95606 | 120.99981 | 34942 ft | 504 kts | 79° |
| 2026-04-16 21:53 | 21.95815 | 121.01146 | 34944 ft | 504 kts | 80° |
| 2026-04-16 21:53 | 21.97116 | 121.08562 | 34941 ft | 504 kts | 79° |
| 2026-04-16 21:54 | 21.98679 | 121.15923 | 34940 ft | 504 kts | 69° |
| 2026-04-16 21:54 | 22.01911 | 121.22571 | 34936 ft | 500 kts | 51° |
| 2026-04-16 21:55 | 22.06234 | 121.28376 | 34951 ft | 500 kts | 49° |
| 2026-04-16 21:55 | 22.10595 | 121.34216 | 34937 ft | 500 kts | 49° |
| 2026-04-16 21:56 | 22.14943 | 121.40058 | 34937 ft | 500 kts | 49° |
| 2026-04-16 21:56 | 22.19295 | 121.45910 | 34948 ft | 500 kts | 49° |
| 2026-04-16 21:57 | 22.23645 | 121.51770 | 34948 ft | 500 kts | 49° |
| 2026-04-16 21:57 | 22.27993 | 121.57629 | 34947 ft | 500 kts | 50° |
| 2026-04-16 21:58 | 22.32342 | 121.63500 | 34951 ft | 500 kts | 50° |
| 2026-04-16 21:58 | 22.36692 | 121.69371 | 34940 ft | 500 kts | 49° |
| 2026-04-16 21:59 | 22.41043 | 121.75241 | 34938 ft | 501 kts | 50° |
| 2026-04-16 21:59 | 22.45367 | 121.81091 | 34933 ft | 501 kts | 50° |
| 2026-04-16 22:00 | 22.49715 | 121.86973 | 34947 ft | 501 kts | 50° |
| 2026-04-16 22:00 | 22.54066 | 121.92859 | 34945 ft | 501 kts | 50° |
| 2026-04-16 22:01 | 22.58416 | 121.98761 | 34946 ft | 502 kts | 50° |
| 2026-04-16 22:01 | 22.62765 | 122.04682 | 34952 ft | 502 kts | 50° |
| 2026-04-16 22:02 | 22.67112 | 122.10595 | 34945 ft | 502 kts | 50° |
| 2026-04-16 22:02 | 22.71462 | 122.16511 | 34953 ft | 502 kts | 50° |
| 2026-04-16 22:03 | 22.75816 | 122.22437 | 34949 ft | 502 kts | 50° |
| 2026-04-16 22:03 | 22.80167 | 122.28363 | 34951 ft | 502 kts | 50° |
| 2026-04-16 22:04 | 22.84484 | 122.34260 | 34956 ft | 502 kts | 50° |
| 2026-04-16 22:04 | 22.88831 | 122.40201 | 34969 ft | 502 kts | 50° |
| 2026-04-16 22:05 | 22.93168 | 122.46144 | 34959 ft | 503 kts | 50° |
| 2026-04-16 22:05 | 22.97512 | 122.52105 | 34956 ft | 503 kts | 50° |
| 2026-04-16 22:06 | 23.01855 | 122.58065 | 34959 ft | 503 kts | 50° |
| 2026-04-16 22:06 | 23.08375 | 122.67015 | 34959 ft | 503 kts | 50° |
| 2026-04-16 22:07 | 23.12716 | 122.72989 | 34962 ft | 504 kts | 50° |
| 2026-04-16 22:07 | 23.17061 | 122.78977 | 34958 ft | 504 kts | 50° |
| 2026-04-16 22:08 | 23.21405 | 122.84959 | 34965 ft | 505 kts | 50° |
| 2026-04-16 22:08 | 23.25751 | 122.90954 | 34961 ft | 505 kts | 50° |
| 2026-04-16 22:09 | 23.30088 | 122.96961 | 34973 ft | 504 kts | 50° |
| 2026-04-16 22:09 | 23.34332 | 123.02987 | 34966 ft | 505 kts | 52° |
| 2026-04-16 22:10 | 23.38330 | 123.09291 | 34964 ft | 506 kts | 54° |
| 2026-04-16 22:10 | 23.42223 | 123.15686 | 34964 ft | 507 kts | 54° |
| 2026-04-16 22:11 | 23.46171 | 123.22044 | 34965 ft | 506 kts | 54° |
| 2026-04-16 22:11 | 23.50171 | 123.28363 | 34977 ft | 506 kts | 53° |
| 2026-04-16 22:12 | 23.54175 | 123.34675 | 34970 ft | 506 kts | 53° |
| 2026-04-16 22:12 | 23.57496 | 123.39938 | 34967 ft | 507 kts | 54° |
| 2026-04-16 22:13 | 23.62125 | 123.47310 | 34967 ft | 507 kts | 54° |
| 2026-04-16 22:13 | 23.65449 | 123.52635 | 34970 ft | 507 kts | 54° |
| 2026-04-16 22:14 | 23.69405 | 123.58955 | 34988 ft | 507 kts | 54° |
| 2026-04-16 22:14 | 23.73394 | 123.65323 | 34976 ft | 508 kts | 54° |
| 2026-04-16 22:15 | 23.77380 | 123.71693 | 34961 ft | 508 kts | 54° |
| 2026-04-16 22:15 | 23.81365 | 123.78069 | 34965 ft | 508 kts | 54° |
| 2026-04-16 22:16 | 23.85342 | 123.84457 | 34971 ft | 509 kts | 54° |
| 2026-04-16 22:16 | 23.89321 | 123.90847 | 34983 ft | 509 kts | 54° |
| 2026-04-16 22:17 | 23.93304 | 123.97248 | 34976 ft | 509 kts | 54° |
| 2026-04-16 22:17 | 23.97275 | 124.03600 | 34972 ft | 509 kts | 53° |
| 2026-04-16 22:18 | 24.01367 | 124.09912 | 34972 ft | 509 kts | 52° |
| 2026-04-16 22:18 | 24.05490 | 124.16207 | 34971 ft | 509 kts | 52° |
| 2026-04-16 22:19 | 24.09583 | 124.22525 | 34966 ft | 509 kts | 53° |
| 2026-04-16 22:19 | 24.13658 | 124.28864 | 34971 ft | 509 kts | 53° |
| 2026-04-16 22:20 | 24.17735 | 124.35204 | 34973 ft | 508 kts | 53° |
| 2026-04-16 22:20 | 24.21805 | 124.41519 | 34973 ft | 508 kts | 53° |
| 2026-04-16 22:21 | 24.25888 | 124.47855 | 34977 ft | 508 kts | 53° |
| 2026-04-16 22:21 | 24.29958 | 124.54204 | 34973 ft | 508 kts | 53° |
| 2026-04-16 22:22 | 24.34013 | 124.60559 | 34973 ft | 509 kts | 53° |
| 2026-04-16 22:22 | 24.38081 | 124.66913 | 34973 ft | 509 kts | 53° |
| 2026-04-16 22:23 | 24.42146 | 124.73269 | 34974 ft | 509 kts | 53° |
| 2026-04-16 22:23 | 24.46189 | 124.79592 | 34977 ft | 509 kts | 53° |
| 2026-04-16 22:24 | 24.50256 | 124.85970 | 34973 ft | 509 kts | 53° |
| 2026-04-16 22:24 | 24.54310 | 124.92351 | 34972 ft | 510 kts | 53° |
| 2026-04-16 22:25 | 24.58365 | 124.98743 | 34974 ft | 510 kts | 53° |
| 2026-04-16 22:25 | 24.62423 | 125.05133 | 34972 ft | 510 kts | 53° |
| 2026-04-16 22:26 | 24.66483 | 125.11529 | 34978 ft | 510 kts | 53° |
| 2026-04-16 22:26 | 24.70547 | 125.17946 | 34967 ft | 511 kts | 53° |
| 2026-04-16 22:27 | 24.74607 | 125.24361 | 34964 ft | 511 kts | 53° |
| 2026-04-16 22:27 | 24.78645 | 125.30797 | 34967 ft | 511 kts | 54° |
| 2026-04-16 22:28 | 24.82456 | 125.37365 | 34977 ft | 512 kts | 57° |
| 2026-04-16 22:28 | 24.86150 | 125.44083 | 34972 ft | 513 kts | 57° |
| 2026-04-16 22:29 | 24.89870 | 125.50785 | 34966 ft | 513 kts | 56° |
| 2026-04-16 22:29 | 24.93649 | 125.57462 | 34975 ft | 513 kts | 56° |
| 2026-04-16 22:30 | 24.97437 | 125.64132 | 34983 ft | 513 kts | 56° |
| 2026-04-16 22:30 | 25.01213 | 125.70809 | 34986 ft | 514 kts | 56° |
| 2026-04-16 22:31 | 25.04983 | 125.77504 | 34971 ft | 514 kts | 56° |
| 2026-04-16 22:31 | 25.08748 | 125.84220 | 34975 ft | 514 kts | 56° |
| 2026-04-16 22:32 | 25.12511 | 125.90937 | 34980 ft | 514 kts | 56° |
| 2026-04-16 22:32 | 25.16282 | 125.97654 | 34993 ft | 515 kts | 56° |
| 2026-04-16 22:33 | 25.20052 | 126.04378 | 34985 ft | 515 kts | 56° |
| 2026-04-16 22:33 | 25.23799 | 126.11082 | 34980 ft | 516 kts | 56° |
| 2026-04-16 22:34 | 25.27564 | 126.17837 | 34976 ft | 516 kts | 56° |
| 2026-04-16 22:34 | 25.31335 | 126.24604 | 34979 ft | 517 kts | 56° |
| 2026-04-16 22:35 | 25.35104 | 126.31373 | 34986 ft | 516 kts | 57° |
| 2026-04-16 22:35 | 25.38865 | 126.38148 | 34986 ft | 516 kts | 57° |
| 2026-04-16 22:36 | 25.42616 | 126.44918 | 34988 ft | 516 kts | 57° |
| 2026-04-16 22:36 | 25.44485 | 126.48292 | 34843 ft | 515 kts | 57° |
| 2026-04-16 22:36 | 25.46363 | 126.51679 | 33728 ft | 516 kts | 57° |
| 2026-04-16 22:37 | 25.48246 | 126.55078 | 31957 ft | 520 kts | 57° |
| 2026-04-16 22:37 | 25.50140 | 126.58502 | 30261 ft | 522 kts | 56° |
| 2026-04-16 22:37 | 25.52035 | 126.61942 | 28292 ft | 523 kts | 57° |
| 2026-04-16 22:37 | 25.53926 | 126.65385 | 26231 ft | 523 kts | 57° |
| 2026-04-16 22:38 | 25.55814 | 126.68829 | 24147 ft | 524 kts | 57° |
| 2026-04-16 22:38 | 25.57695 | 126.72266 | 22403 ft | 515 kts | 57° |
| 2026-04-16 22:38 | 25.59546 | 126.75654 | 21280 ft | 512 kts | 57° |
| 2026-04-16 22:38 | 25.61341 | 126.78940 | 20746 ft | 498 kts | 57° |
| 2026-04-16 22:39 | 25.63110 | 126.82177 | 19516 ft | 490 kts | 57° |
| 2026-04-16 22:39 | 25.64872 | 126.85394 | 18859 ft | 483 kts | 57° |
| 2026-04-16 22:39 | 25.66599 | 126.88555 | 18074 ft | 477 kts | 57° |
| 2026-04-16 22:39 | 25.68306 | 126.91681 | 17354 ft | 469 kts | 57° |
| 2026-04-16 22:40 | 25.69986 | 126.94760 | 16446 ft | 465 kts | 57° |
| 2026-04-16 22:40 | 25.71642 | 126.97794 | 15670 ft | 458 kts | 57° |
| 2026-04-16 22:40 | 25.73281 | 127.00802 | 14937 ft | 451 kts | 57° |
| 2026-04-16 22:40 | 25.74898 | 127.03772 | 14187 ft | 446 kts | 57° |
| 2026-04-16 22:41 | 25.76487 | 127.06692 | 13541 ft | 439 kts | 57° |
| 2026-04-16 22:41 | 25.78052 | 127.09570 | 12877 ft | 431 kts | 57° |
| 2026-04-16 22:41 | 25.79584 | 127.12390 | 12234 ft | 423 kts | 57° |
| 2026-04-16 22:41 | 25.81089 | 127.15165 | 11616 ft | 416 kts | 57° |
| 2026-04-16 22:42 | 25.82565 | 127.17883 | 11272 ft | 402 kts | 57° |
| 2026-04-16 22:42 | 25.83969 | 127.20474 | 11155 ft | 382 kts | 57° |
| 2026-04-16 22:42 | 25.85290 | 127.22912 | 11030 ft | 365 kts | 57° |
| 2026-04-16 22:42 | 25.86567 | 127.25273 | 10914 ft | 348 kts | 57° |
| 2026-04-16 22:43 | 25.87788 | 127.27526 | 10798 ft | 334 kts | 56° |
| 2026-04-16 22:43 | 25.89100 | 127.29575 | 10677 ft | 317 kts | 45° |
| 2026-04-16 22:43 | 25.90691 | 127.31194 | 10425 ft | 306 kts | 32° |
| 2026-04-16 22:43 | 25.92488 | 127.32369 | 10331 ft | 298 kts | 21° |
| 2026-04-16 22:44 | 25.94376 | 127.33313 | 10204 ft | 298 kts | 21° |
| 2026-04-16 22:44 | 25.96265 | 127.34262 | 10063 ft | 297 kts | 21° |
| 2026-04-16 22:44 | 25.98147 | 127.35212 | 9765 ft | 299 kts | 21° |
| 2026-04-16 22:44 | 26.00033 | 127.36165 | 9355 ft | 297 kts | 21° |
| 2026-04-16 22:45 | 26.01903 | 127.37113 | 8982 ft | 294 kts | 21° |
| 2026-04-16 22:45 | 26.03754 | 127.38053 | 8617 ft | 291 kts | 21° |
| 2026-04-16 22:45 | 26.05589 | 127.38986 | 8260 ft | 289 kts | 21° |
| 2026-04-16 22:45 | 26.07412 | 127.39908 | 7898 ft | 287 kts | 21° |
| 2026-04-16 22:46 | 26.09223 | 127.40823 | 7543 ft | 284 kts | 21° |
| 2026-04-16 22:46 | 26.10981 | 127.41712 | 7421 ft | 273 kts | 21° |
| 2026-04-16 22:46 | 26.12723 | 127.42593 | 6887 ft | 276 kts | 21° |
| 2026-04-16 22:46 | 26.14452 | 127.43467 | 6515 ft | 269 kts | 21° |
| 2026-04-16 22:47 | 26.16137 | 127.44320 | 6159 ft | 261 kts | 21° |
| 2026-04-16 22:47 | 26.17773 | 127.45149 | 5852 ft | 255 kts | 21° |
| 2026-04-16 22:47 | 26.19371 | 127.45957 | 5510 ft | 249 kts | 21° |
| 2026-04-16 22:47 | 26.20914 | 127.46737 | 5212 ft | 244 kts | 21° |
| 2026-04-16 22:48 | 26.22452 | 127.47515 | 4898 ft | 242 kts | 22° |
| 2026-04-16 22:48 | 26.23985 | 127.48292 | 4595 ft | 240 kts | 22° |
| 2026-04-16 22:48 | 26.25504 | 127.49061 | 4301 ft | 240 kts | 23° |
| 2026-04-16 22:48 | 26.27026 | 127.49831 | 4001 ft | 239 kts | 22° |
| 2026-04-16 22:49 | 26.28541 | 127.50599 | 3708 ft | 239 kts | 24° |
| 2026-04-16 22:49 | 26.30051 | 127.51363 | 3407 ft | 238 kts | 24° |
| 2026-04-16 22:49 | 26.31561 | 127.52128 | 3108 ft | 238 kts | 25° |
| 2026-04-16 22:49 | 26.32898 | 127.53149 | 2801 ft | 230 kts | 49° |
| 2026-04-16 22:50 | 26.33732 | 127.54604 | 2525 ft | 218 kts | 71° |
| 2026-04-16 22:50 | 26.34009 | 127.56206 | 2234 ft | 206 kts | 90° |
| 2026-04-16 22:50 | 26.34060 | 127.57782 | 1953 ft | 201 kts | 90° |
| 2026-04-16 22:50 | 26.34118 | 127.59335 | 1775 ft | 200 kts | 90° |
| 2026-04-16 22:51 | 26.34036 | 127.60846 | 1580 ft | 189 kts | 111° |
| 2026-04-16 22:51 | 26.33288 | 127.61961 | 1458 ft | 179 kts | 148° |
| 2026-04-16 22:51 | 26.32115 | 127.62281 | 1398 ft | 169 kts | 175° |
| 2026-04-16 22:51 | 26.30972 | 127.62371 | 1324 ft | 161 kts | 174° |
| 2026-04-16 22:52 | 26.29873 | 127.62460 | 1255 ft | 156 kts | 174° |
| 2026-04-16 22:52 | 26.28795 | 127.62545 | 1236 ft | 155 kts | 174° |
| 2026-04-16 22:52 | 26.27723 | 127.62630 | 1239 ft | 154 kts | 174° |
| 2026-04-16 22:52 | 26.26678 | 127.62712 | 1188 ft | 149 kts | 174° |
| 2026-04-16 22:53 | 26.25669 | 127.62791 | 1035 ft | 143 kts | 173° |
| 2026-04-16 22:53 | 26.24683 | 127.62868 | 875 ft | 141 kts | 173° |
| 2026-04-16 22:53 | 26.23704 | 127.62952 | 696 ft | 140 kts | 170° |
| 2026-04-16 22:53 | 26.22732 | 127.63089 | 547 ft | 141 kts | 170° |
| 2026-04-16 22:54 | 26.21748 | 127.63169 | 378 ft | 143 kts | 175° |
| 2026-04-16 22:54 | 26.20766 | 127.63208 | 179 ft | 140 kts | 174° |
| 2026-04-16 22:54 | 26.19802 | 127.63272 | 30 ft | 131 kts | 174° |
| 2026-04-16 22:54 | 26.19013 | 127.63321 | 15 ft | 91 kts | 178° |
| 2026-04-16 22:55 | 26.18545 | 127.63325 | 19 ft | 51 kts | 179° |
| 2026-04-16 22:55 | 26.18261 | 127.63334 | 19 ft | 35 kts | 175° |
| 2026-04-16 22:55 | 26.18061 | 127.63346 | 19 ft | 17 kts | 178° |
| 2026-04-16 22:55 | 26.17981 | 127.63373 | 20 ft | 12 kts | 130° |
| 2026-04-16 22:56 | 26.17973 | 127.63456 | 18 ft | 9 kts | 86° |
| 2026-04-16 22:56 | 26.17989 | 127.63521 | 17 ft | 9 kts | 49° |
| 2026-04-16 22:56 | 26.18053 | 127.63539 | 17 ft | 10 kts | 356° |
| 2026-04-16 22:56 | 26.18129 | 127.63532 | 17 ft | 12 kts | 355° |
| 2026-04-16 22:57 | 26.18213 | 127.63529 | 17 ft | 13 kts | 0° |
| 2026-04-16 22:57 | 26.18304 | 127.63527 | 17 ft | 14 kts | 358° |
| 2026-04-16 22:57 | 26.18403 | 127.63522 | 17 ft | 15 kts | 357° |
| 2026-04-16 22:57 | 26.18507 | 127.63516 | 17 ft | 16 kts | 356° |
| 2026-04-16 22:58 | 26.18619 | 127.63510 | 17 ft | 17 kts | 358° |
| 2026-04-16 22:58 | 26.18738 | 127.63503 | 17 ft | 18 kts | 357° |
| 2026-04-16 22:58 | 26.18864 | 127.63496 | 16 ft | 19 kts | 357° |
| 2026-04-16 22:58 | 26.18996 | 127.63491 | 17 ft | 19 kts | 358° |
| 2026-04-16 22:59 | 26.19133 | 127.63487 | 17 ft | 20 kts | 358° |
| 2026-04-16 22:59 | 26.19275 | 127.63480 | 16 ft | 21 kts | 355° |
| 2026-04-16 22:59 | 26.19372 | 127.63475 | 17 ft | 21 kts | 358° |
| 2026-04-16 22:59 | 26.19572 | 127.63466 | 17 ft | 22 kts | 358° |
| 2026-04-16 23:00 | 26.19674 | 127.63462 | 17 ft | 23 kts | 357° |
| 2026-04-16 23:00 | 26.19885 | 127.63451 | 17 ft | 23 kts | 357° |
| 2026-04-16 23:00 | 26.20045 | 127.63444 | 17 ft | 21 kts | 359° |
| 2026-04-16 23:00 | 26.20126 | 127.63443 | 17 ft | 17 kts | 354° |
| 2026-04-16 23:01 | 26.20238 | 127.63435 | 17 ft | 11 kts | 358° |
| 2026-04-16 23:01 | 26.20301 | 127.63467 | 17 ft | 11 kts | 70° |
| 2026-04-16 23:01 | 26.20303 | 127.63553 | 17 ft | 12 kts | 88° |
| 2026-04-16 23:01 | 26.20307 | 127.63678 | 17 ft | 13 kts | 87° |
| 2026-04-16 23:02 | 26.20310 | 127.63747 | 17 ft | 13 kts | 87° |
| 2026-04-16 23:02 | 26.20314 | 127.63854 | 17 ft | 14 kts | 88° |
| 2026-04-16 23:02 | 26.20318 | 127.63969 | 17 ft | 15 kts | 87° |
| 2026-04-16 23:02 | 26.20324 | 127.64091 | 17 ft | 16 kts | 87° |
| 2026-04-16 23:03 | 26.20327 | 127.64172 | 17 ft | 10 kts | 88° |
| 2026-04-16 23:03 | 26.20330 | 127.64251 | 17 ft | 11 kts | 86° |
| 2026-04-16 23:03 | 26.20373 | 127.64315 | 17 ft | 11 kts | 18° |
| 2026-04-16 23:03 | 26.20456 | 127.64312 | 17 ft | 12 kts | 357° |
| 2026-04-16 23:04 | 26.20546 | 127.64310 | 17 ft | 13 kts | 2° |
| 2026-04-16 23:04 | 26.20639 | 127.64330 | 17 ft | 14 kts | 13° |
| 2026-04-16 23:04 | 26.20740 | 127.64357 | 17 ft | 16 kts | 13° |
| 2026-04-16 23:04 | 26.20852 | 127.64383 | 16 ft | 17 kts | 15° |
| 2026-04-16 23:05 | 26.20905 | 127.64414 | 17 ft | 7 kts | 38° |
| 2026-04-16 23:05 | 26.20930 | 127.64462 | 18 ft | 8 kts | 69° |
| 2026-04-16 23:05 | 26.20950 | 127.64520 | 17 ft | 9 kts | 69° |
| 2026-04-16 23:05 | 26.20973 | 127.64588 | 16 ft | 10 kts | 70° |
| 2026-04-16 23:06 | 26.20981 | 127.64670 | 16 ft | 11 kts | 90° |
| 2026-04-16 23:06 | 26.21012 | 127.64740 | 18 ft | 11 kts | 26° |
| 2026-04-16 23:06 | 26.21089 | 127.64750 | 18 ft | 12 kts | 356° |
| 2026-04-16 23:06 | 26.21174 | 127.64744 | 18 ft | 12 kts | 357° |
| 2026-04-16 23:07 | 26.21259 | 127.64740 | 20 ft | 12 kts | 0° |
| 2026-04-16 23:07 | 26.21314 | 127.64789 | 21 ft | 11 kts | 75° |
| 2026-04-16 23:07 | 26.21290 | 127.64857 | 22 ft | 10 kts | 144° |
| 2026-04-16 23:07 | 26.21221 | 127.64876 | 21 ft | 9 kts | 175° |
| 2026-04-16 23:08 | 26.21152 | 127.64878 | 21 ft | 11 kts | 179° |
| 2026-04-16 23:08 | 26.21117 | 127.64878 | 21 ft | 1 kts | 179° |
| 2026-04-16 23:08 | 26.21106 | 127.64881 | 21 ft | 2 kts | 158° |
| 2026-04-16 23:08 | 26.21098 | 127.64891 | 21 ft | 2 kts | 134° |
| 2026-04-16 23:09 | 26.21095 | 127.64902 | 21 ft | 1 kts | 93° |
| 2026-04-16 23:09 | 26.21096 | 127.64910 | 21 ft | 1 kts | 84° |
| 2026-04-16 23:09 | 26.21097 | 127.64920 | 21 ft | 1 kts | 86° |
| 2026-04-16 23:09 | 26.21097 | 127.64932 | 23 ft | 2 kts | 88° |
| 2026-04-16 23:10 | 26.21098 | 127.64947 | 23 ft | 2 kts | 87° |
| 2026-04-16 23:10 | 26.21098 | 127.64949 | 23 ft | 0 kts | 87° |
| 2026-04-16 23:30 | 26.21151 | 127.64974 | 22 ft | 0 kts | 88° |